Calexico, California
Current Conditions -  °F | °C
As of 1:53 AM on Saturday 22 Nov 2014 (Local Time) from KIPL Reporting Station
Clear Clear  
Wind Chill: 52°   Ceiling: Unl
Heat Index: 52°   Visibility: 10mi
Dew Point: 46°   Wind: 5mph
Humidity: 80%   Direction: 270°W
Pressure: 30"   Gusts: NA
Location:  32.68°N, 115.49°W
Report Text: KIPL 220953Z AUTO 27004KT 10SM CLR 11/08 A3000 RMK AO2 SLP160 T01110078
Loading
Personal Weather Stations






























Interactive Weather Map New forecast layout! Learn more

10-Day Weather Forecast

Advertisements
Track Severe Weather on mobile